sim
Sign-in with your pilot id or email,
or register
Callsign
Passwort

Schedule Details

Flight Number: EWG234 (3)
Departure: Munich Airport (EDDM) at 09:30
Arrival: Montego Bay Sangster International Airport (MKJS) at 21:00
Route: Eurowings Passenger Schedule. Enter filed route here before submitting Pirep.

Weather Information
Getting current METAR information for EDDM 282020Z VRB02KT CAVOK 09/07 Q1015 NOSIG
Getting current METAR information for MKJS 282011Z 16005KT 9999 3000W TSRA SCT018 SCT020CB 30/25 Q1009

Schedule Frequency

Route Map